KVSF/VSF METAR and TAF weather

Enter ICAO airport designator
Station Type Date Time Source
KVSF METAR 2022/11/30 16:54 UTC NOAA

KVSF 301654Z AUTO 00000KT 1 1/2SM -RA BR OVC008 01/01 A2988 RMK AO2 SLP126 P0005 T00110006


Station Type Date Time Source
KVSF Decoded METAR 2022/11/30 16:54 UTC NOAA

HARTNESS STATE AIRPORT, VT, United States (KVSF) 43-21N 72-31W 175M
Nov 30, 2022 - 11:54 AM EST / 2022.11.30 1654 UTC
Wind: Calm:0
Visibility: 1 1/2 mile(s):0
Sky conditions: overcast
Weather: light rain; mist
Precipitation last hour: 0.05 inches
Temperature: 34.0 F (1.1 C)
Dew Point: 33.1 F (0.6 C)
Relative Humidity: 96%
Pressure (altimeter): 29.88 in. Hg (1011 hPa)
ob: KVSF 301654Z AUTO 00000KT 1 1/2SM -RA BR OVC008 01/01 A2988 RMK AO2 SLP126 P0005 T00110006
cycle: 17

Station Type Date Time Source
KVSF TAF UTC NOAA

Error!

Example: see airport list